sensor_id;sensor_type;location;lat;lon;timestamp;P1;durP1;ratioP1;P2;durP2;ratioP2
74912;SDS011;63878;55.624;37.304;2024-02-21T00:01:51;11.13;;;6.88;;
74912;SDS011;63878;55.624;37.304;2024-02-21T00:11:52;8.68;;;5.53;;
74912;SDS011;63878;55.624;37.304;2024-02-21T00:21:52;10.38;;;5.63;;
74912;SDS011;63878;55.624;37.304;2024-02-21T00:31:53;5.75;;;3.80;;
74912;SDS011;63878;55.624;37.304;2024-02-21T00:41:53;6.82;;;4.22;;
74912;SDS011;63878;55.624;37.304;2024-02-21T00:51:55;11.75;;;6.60;;
74912;SDS011;63878;55.624;37.304;2024-02-21T01:01:55;13.68;;;7.28;;
74912;SDS011;63878;55.624;37.304;2024-02-21T01:11:55;7.50;;;4.88;;
74912;SDS011;63878;55.624;37.304;2024-02-21T01:21:56;12.40;;;6.78;;
74912;SDS011;63878;55.624;37.304;2024-02-21T01:31:57;12.10;;;6.55;;
74912;SDS011;63878;55.624;37.304;2024-02-21T01:41:57;12.05;;;7.15;;
74912;SDS011;63878;55.624;37.304;2024-02-21T01:51:57;10.45;;;4.97;;
74912;SDS011;63878;55.624;37.304;2024-02-21T02:01:58;7.90;;;4.33;;
74912;SDS011;63878;55.624;37.304;2024-02-21T02:12:00;7.95;;;4.32;;
74912;SDS011;63878;55.624;37.304;2024-02-21T02:22:09;11.77;;;6.40;;
74912;SDS011;63878;55.624;37.304;2024-02-21T02:32:17;12.70;;;7.03;;
74912;SDS011;63878;55.624;37.304;2024-02-21T02:42:18;10.65;;;4.80;;
74912;SDS011;63878;55.624;37.304;2024-02-21T02:52:18;11.98;;;6.03;;
74912;SDS011;63878;55.624;37.304;2024-02-21T03:02:19;10.50;;;6.07;;
74912;SDS011;63878;55.624;37.304;2024-02-21T03:12:19;11.43;;;5.85;;
74912;SDS011;63878;55.624;37.304;2024-02-21T03:32:20;8.45;;;4.60;;
74912;SDS011;63878;55.624;37.304;2024-02-21T03:42:21;11.05;;;4.18;;
74912;SDS011;63878;55.624;37.304;2024-02-21T03:52:21;13.43;;;6.40;;
74912;SDS011;63878;55.624;37.304;2024-02-21T04:02:21;13.52;;;7.38;;
74912;SDS011;63878;55.624;37.304;2024-02-21T04:12:22;11.40;;;5.70;;
74912;SDS011;63878;55.624;37.304;2024-02-21T04:22:22;10.15;;;4.97;;
74912;SDS011;63878;55.624;37.304;2024-02-21T04:32:23;11.90;;;6.70;;
74912;SDS011;63878;55.624;37.304;2024-02-21T04:42:23;13.90;;;6.30;;
74912;SDS011;63878;55.624;37.304;2024-02-21T04:52:24;13.25;;;7.35;;
74912;SDS011;63878;55.624;37.304;2024-02-21T05:02:24;16.50;;;6.30;;
74912;SDS011;63878;55.624;37.304;2024-02-21T05:12:25;9.57;;;4.77;;
74912;SDS011;63878;55.624;37.304;2024-02-21T05:22:26;13.02;;;7.22;;
74912;SDS011;63878;55.624;37.304;2024-02-21T05:32:26;11.10;;;5.63;;
74912;SDS011;63878;55.624;37.304;2024-02-21T05:42:27;16.05;;;9.32;;
74912;SDS011;63878;55.624;37.304;2024-02-21T05:52:28;13.82;;;7.38;;
74912;SDS011;63878;55.624;37.304;2024-02-21T06:02:29;12.82;;;8.30;;
74912;SDS011;63878;55.624;37.304;2024-02-21T06:12:29;11.23;;;6.60;;
74912;SDS011;63878;55.624;37.304;2024-02-21T06:22:30;10.23;;;6.07;;
74912;SDS011;63878;55.624;37.304;2024-02-21T06:32:31;14.77;;;7.30;;
74912;SDS011;63878;55.624;37.304;2024-02-21T06:42:31;13.13;;;6.05;;
74912;SDS011;63878;55.624;37.304;2024-02-21T06:52:31;15.95;;;7.72;;
74912;SDS011;63878;55.624;37.304;2024-02-21T07:02:32;13.30;;;7.13;;
74912;SDS011;63878;55.624;37.304;2024-02-21T07:12:33;12.43;;;7.30;;
74912;SDS011;63878;55.624;37.304;2024-02-21T07:22:33;16.98;;;8.45;;
74912;SDS011;63878;55.624;37.304;2024-02-21T07:32:34;14.13;;;7.55;;
74912;SDS011;63878;55.624;37.304;2024-02-21T07:42:36;12.57;;;8.27;;
74912;SDS011;63878;55.624;37.304;2024-02-21T07:52:36;11.50;;;5.67;;
74912;SDS011;63878;55.624;37.304;2024-02-21T08:02:37;19.48;;;7.85;;
74912;SDS011;63878;55.624;37.304;2024-02-21T08:12:38;9.38;;;5.82;;
74912;SDS011;63878;55.624;37.304;2024-02-21T08:22:39;12.80;;;7.15;;
74912;SDS011;63878;55.624;37.304;2024-02-21T08:32:39;12.07;;;7.72;;
74912;SDS011;63878;55.624;37.304;2024-02-21T08:42:40;15.55;;;8.13;;
74912;SDS011;63878;55.624;37.304;2024-02-21T08:52:40;12.15;;;7.00;;
74912;SDS011;63878;55.624;37.304;2024-02-21T09:02:41;14.80;;;8.13;;
74912;SDS011;63878;55.624;37.304;2024-02-21T09:12:42;15.88;;;8.15;;
74912;SDS011;63878;55.624;37.304;2024-02-21T09:22:42;11.90;;;6.78;;
74912;SDS011;63878;55.624;37.304;2024-02-21T09:32:43;12.70;;;7.20;;
74912;SDS011;63878;55.624;37.304;2024-02-21T09:42:44;10.07;;;4.75;;
74912;SDS011;63878;55.624;37.304;2024-02-21T09:52:48;16.30;;;8.52;;
74912;SDS011;63878;55.624;37.304;2024-02-21T10:02:49;14.52;;;7.68;;
74912;SDS011;63878;55.624;37.304;2024-02-21T10:12:51;13.63;;;6.03;;
74912;SDS011;63878;55.624;37.304;2024-02-21T10:23:01;16.10;;;8.35;;
74912;SDS011;63878;55.624;37.304;2024-02-21T10:33:05;11.40;;;6.63;;
74912;SDS011;63878;55.624;37.304;2024-02-21T10:43:06;14.70;;;7.10;;
74912;SDS011;63878;55.624;37.304;2024-02-21T11:03:31;12.02;;;6.07;;
74912;SDS011;63878;55.624;37.304;2024-02-21T11:13:35;13.18;;;5.20;;
74912;SDS011;63878;55.624;37.304;2024-02-21T11:23:36;10.57;;;6.05;;
74912;SDS011;63878;55.624;37.304;2024-02-21T11:33:39;11.90;;;6.53;;
74912;SDS011;63878;55.624;37.304;2024-02-21T11:43:40;11.93;;;6.00;;
74912;SDS011;63878;55.624;37.304;2024-02-21T11:53:40;16.65;;;7.28;;
74912;SDS011;63878;55.624;37.304;2024-02-21T12:03:42;6.40;;;4.07;;
74912;SDS011;63878;55.624;37.304;2024-02-21T12:13:43;10.43;;;6.03;;
74912;SDS011;63878;55.624;37.304;2024-02-21T12:23:43;11.50;;;5.90;;
74912;SDS011;63878;55.624;37.304;2024-02-21T12:33:43;15.60;;;8.18;;
74912;SDS011;63878;55.624;37.304;2024-02-21T12:43:44;15.10;;;8.50;;
74912;SDS011;63878;55.624;37.304;2024-02-21T12:53:44;10.63;;;5.68;;
74912;SDS011;63878;55.624;37.304;2024-02-21T13:03:45;13.27;;;6.78;;
74912;SDS011;63878;55.624;37.304;2024-02-21T13:13:46;12.02;;;5.93;;
74912;SDS011;63878;55.624;37.304;2024-02-21T13:23:46;14.88;;;7.72;;
74912;SDS011;63878;55.624;37.304;2024-02-21T13:33:46;12.07;;;6.75;;
74912;SDS011;63878;55.624;37.304;2024-02-21T13:43:47;17.75;;;7.20;;
74912;SDS011;63878;55.624;37.304;2024-02-21T13:53:47;15.43;;;7.40;;
74912;SDS011;63878;55.624;37.304;2024-02-21T14:03:48;15.45;;;8.25;;
74912;SDS011;63878;55.624;37.304;2024-02-21T14:13:48;13.87;;;6.87;;
74912;SDS011;63878;55.624;37.304;2024-02-21T14:23:49;14.68;;;8.15;;
74912;SDS011;63878;55.624;37.304;2024-02-21T14:33:49;16.60;;;7.18;;
74912;SDS011;63878;55.624;37.304;2024-02-21T14:43:50;8.67;;;4.73;;
74912;SDS011;63878;55.624;37.304;2024-02-21T14:53:51;15.52;;;9.02;;
74912;SDS011;63878;55.624;37.304;2024-02-21T15:03:51;17.30;;;7.55;;
74912;SDS011;63878;55.624;37.304;2024-02-21T15:13:52;13.67;;;7.07;;
74912;SDS011;63878;55.624;37.304;2024-02-21T15:23:53;13.40;;;5.47;;
74912;SDS011;63878;55.624;37.304;2024-02-21T15:33:53;14.43;;;6.70;;
74912;SDS011;63878;55.624;37.304;2024-02-21T15:43:54;18.98;;;10.38;;
74912;SDS011;63878;55.624;37.304;2024-02-21T15:53:54;15.03;;;7.77;;
74912;SDS011;63878;55.624;37.304;2024-02-21T16:03:55;16.13;;;8.27;;
74912;SDS011;63878;55.624;37.304;2024-02-21T16:13:56;9.73;;;4.72;;
74912;SDS011;63878;55.624;37.304;2024-02-21T16:24:01;11.27;;;5.25;;
74912;SDS011;63878;55.624;37.304;2024-02-21T16:34:02;19.42;;;8.35;;
74912;SDS011;63878;55.624;37.304;2024-02-21T16:44:03;18.73;;;9.43;;
74912;SDS011;63878;55.624;37.304;2024-02-21T16:54:04;16.10;;;7.30;;
74912;SDS011;63878;55.624;37.304;2024-02-21T17:04:05;15.30;;;7.60;;
74912;SDS011;63878;55.624;37.304;2024-02-21T17:14:06;16.37;;;7.93;;
74912;SDS011;63878;55.624;37.304;2024-02-21T17:24:06;17.00;;;7.45;;
74912;SDS011;63878;55.624;37.304;2024-02-21T17:34:07;13.00;;;5.13;;
74912;SDS011;63878;55.624;37.304;2024-02-21T17:44:07;12.87;;;5.67;;
74912;SDS011;63878;55.624;37.304;2024-02-21T17:54:08;19.17;;;9.55;;
74912;SDS011;63878;55.624;37.304;2024-02-21T18:04:09;15.75;;;9.00;;
74912;SDS011;63878;55.624;37.304;2024-02-21T18:14:09;15.05;;;7.18;;
74912;SDS011;63878;55.624;37.304;2024-02-21T18:24:10;15.27;;;7.50;;
74912;SDS011;63878;55.624;37.304;2024-02-21T18:34:11;16.25;;;7.88;;
74912;SDS011;63878;55.624;37.304;2024-02-21T18:44:12;17.55;;;8.15;;
74912;SDS011;63878;55.624;37.304;2024-02-21T18:54:13;15.75;;;6.70;;
74912;SDS011;63878;55.624;37.304;2024-02-21T19:04:14;14.57;;;6.57;;
74912;SDS011;63878;55.624;37.304;2024-02-21T19:14:14;20.80;;;9.43;;
74912;SDS011;63878;55.624;37.304;2024-02-21T19:24:15;20.10;;;10.98;;
74912;SDS011;63878;55.624;37.304;2024-02-21T19:34:16;18.95;;;9.73;;
74912;SDS011;63878;55.624;37.304;2024-02-21T19:44:16;16.77;;;8.05;;
74912;SDS011;63878;55.624;37.304;2024-02-21T19:54:17;21.75;;;8.27;;
74912;SDS011;63878;55.624;37.304;2024-02-21T20:04:18;28.52;;;15.02;;
74912;SDS011;63878;55.624;37.304;2024-02-21T20:14:18;23.05;;;11.30;;
74912;SDS011;63878;55.624;37.304;2024-02-21T20:24:19;19.97;;;9.90;;
74912;SDS011;63878;55.624;37.304;2024-02-21T20:34:19;24.45;;;10.50;;
74912;SDS011;63878;55.624;37.304;2024-02-21T20:44:20;21.75;;;10.00;;
74912;SDS011;63878;55.624;37.304;2024-02-21T20:54:21;20.10;;;8.20;;
74912;SDS011;63878;55.624;37.304;2024-02-21T21:04:21;19.88;;;9.50;;
74912;SDS011;63878;55.624;37.304;2024-02-21T21:14:22;20.67;;;10.35;;
74912;SDS011;63878;55.624;37.304;2024-02-21T21:24:24;23.77;;;10.70;;
74912;SDS011;63878;55.624;37.304;2024-02-21T21:34:26;22.90;;;8.40;;
74912;SDS011;63878;55.624;37.304;2024-02-21T21:44:28;22.92;;;10.63;;
74912;SDS011;63878;55.624;37.304;2024-02-21T21:54:29;24.53;;;13.00;;
74912;SDS011;63878;55.624;37.304;2024-02-21T22:04:29;26.90;;;11.90;;
74912;SDS011;63878;55.624;37.304;2024-02-21T22:14:30;24.35;;;9.02;;
74912;SDS011;63878;55.624;37.304;2024-02-21T22:24:31;21.57;;;12.03;;
74912;SDS011;63878;55.624;37.304;2024-02-21T22:34:32;23.52;;;11.40;;
74912;SDS011;63878;55.624;37.304;2024-02-21T22:44:32;25.83;;;12.25;;
74912;SDS011;63878;55.624;37.304;2024-02-21T22:54:33;29.13;;;12.68;;
74912;SDS011;63878;55.624;37.304;2024-02-21T23:04:34;21.00;;;9.18;;
74912;SDS011;63878;55.624;37.304;2024-02-21T23:14:35;23.53;;;8.90;;
74912;SDS011;63878;55.624;37.304;2024-02-21T23:24:35;25.58;;;10.45;;
74912;SDS011;63878;55.624;37.304;2024-02-21T23:34:36;25.27;;;9.07;;
74912;SDS011;63878;55.624;37.304;2024-02-21T23:44:37;26.88;;;13.43;;
74912;SDS011;63878;55.624;37.304;2024-02-21T23:54:38;19.73;;;8.35;;
